CYNE

Norway House Airport

Norway House, Manitoba, Canada
METAR CYNE 170202Z AUTO 14003KT 100V180 5SM -SN BKN012 BKN018 OVC025 M16/M18 A2987 RMK SLP144
Observed Flight Rules
Dec-17 @ 02:02 UTC (13 minutes ago) Marginal Visual Flight Rules
Wind Visibility Clouds Conditions
140° at 3 knots 5 miles
  • Broken at 1,200' AGL
  • Broken at 1,800' AGL
  • Overcast at 2,500' AGL
  • Light Snow
Temperatures Readings
Current -16°C / 3°F
Dewpoint -18°C / -0°F
Humidity 85%
Altimeter 29.87" Hg
Pressure 1014.4 hPa
Elevation 223
METAR CYNE 170202Z AUTO 14003KT 100V180 5SM -SN BKN012 BKN018 OVC025 M16/M18 A2987 RMK SLP144
Observed Flight Rules
Dec-17 @ 02:02 UTC
(13 minutes ago)
MVFR
Wind Visibility
140° at 3 knots 5 miles
Clouds
  • Broken at 1,200' AGL
  • Broken at 1,800' AGL
  • Overcast at 2,500' AGL
Conditions
  • Light Snow
Temperature Dewpoint
-16°C / 3°F -18°C / -0°F
Humidity Altimeter Pressure
85% 29.87" Hg 1014.4 hPa